Time;durP1;ratioP1;P1;durP2;ratioP2;P2;SDS_P1;SDS_P2;PMS_P1;PMS_P2;Temp;Humidity;BMP_temperature;BMP_pressure;BME280_temperature;BME280_humidity;BME280_pressure;Samples;Min_cycle;Max_cycle;Signal;HPM_P1;HPM_P2
2023/07/20 00:04:54;;;;;;;3.25;2.20;;;;;;;22.58;46.15;99018.28;7219169;40;20331;31
2023/07/20 00:15:30;;;;;;;4.10;2.05;;;;;;;22.52;46.66;99022.00;7279382;39;20279;31
2023/07/20 00:21:01;;;;;;;4.30;2.00;;;;;;;22.49;46.24;99026.09;7273593;40;20291;31
2023/07/20 00:31:26;;;;;;;3.50;1.80;;;;;;;22.37;46.52;99034.41;7253103;40;20289;31
2023/07/20 00:37:01;;;;;;;3.00;2.00;;;;;;;22.36;46.72;99023.66;7269090;40;20244;31
2023/07/20 00:42:19;;;;;;;4.10;2.20;;;;;;;22.25;46.45;99025.37;7214659;40;20269;31
2023/07/20 00:47:53;;;;;;;4.37;2.10;;;;;;;22.18;47.04;99019.19;7217725;40;20363;31
2023/07/20 00:53:29;;;;;;;3.92;1.90;;;;;;;22.02;47.81;99026.31;7206816;40;20272;31
2023/07/20 00:59:04;;;;;;;2.53;1.92;;;;;;;21.83;48.01;99021.22;7232057;40;20261;31
2023/07/20 01:04:39;;;;;;;3.87;1.90;;;;;;;21.66;48.97;99025.81;7244250;40;20262;31
2023/07/20 01:10:13;;;;;;;2.55;2.03;;;;;;;21.62;48.75;99022.72;7184567;40;20381;31
2023/07/20 01:15:31;;;;;;;3.08;2.17;;;;;;;21.61;48.26;99028.44;7144409;40;20250;31
2023/07/20 01:21:02;;;;;;;3.03;2.30;;;;;;;21.57;48.58;99022.59;7175318;40;20247;31
2023/07/20 01:26:42;;;;;;;6.53;2.30;;;;;;;21.50;49.26;99024.66;7193806;40;20374;31
2023/07/20 01:32:15;;;;;;;3.20;2.25;;;;;;;21.44;48.50;99020.97;7203399;40;20353;31
2023/07/20 01:37:47;;;;;;;2.78;2.10;;;;;;;21.39;49.47;99022.75;7285372;39;20346;31
2023/07/20 01:43:05;;;;;;;3.72;2.33;;;;;;;21.34;49.51;99023.47;7097013;39;20446;31
2023/07/20 01:48:37;;;;;;;2.30;1.90;;;;;;;21.31;49.95;99020.38;7228438;40;20283;31
2023/07/20 01:53:54;;;;;;;3.43;2.00;;;;;;;21.25;49.30;99016.69;7240860;40;20288;31
2023/07/20 01:59:25;;;;;;;2.87;1.90;;;;;;;21.16;49.73;99014.53;7194118;40;20301;31
2023/07/20 02:04:57;;;;;;;3.08;1.87;;;;;;;21.07;50.02;99008.56;7209062;40;20338;31
2023/07/20 02:10:29;;;;;;;3.45;1.90;;;;;;;21.05;50.22;99018.94;7182881;40;20311;31
2023/07/20 02:16:01;;;;;;;3.65;2.37;;;;;;;21.03;50.98;99008.19;7263304;40;20254;31
2023/07/20 02:21:37;;;;;;;3.30;2.10;;;;;;;20.96;51.47;99009.41;7235976;40;20254;31
2023/07/20 02:27:09;;;;;;;3.25;2.00;;;;;;;20.88;50.58;98999.62;7259543;40;20272;31
2023/07/20 02:32:26;;;;;;;4.20;2.05;;;;;;;20.81;50.99;99009.03;7214721;40;21452;31
2023/07/20 02:38:03;;;;;;;4.00;1.90;;;;;;;20.55;51.67;99013.03;7243774;40;20263;31
2023/07/20 02:43:19;;;;;;;2.90;2.17;;;;;;;20.51;52.35;99020.91;7225487;40;20273;31
2023/07/20 02:48:36;;;;;;;3.10;2.10;;;;;;;20.41;52.04;99015.16;7263701;40;20331;31
2023/07/20 02:59:14;;;;;;;4.07;2.42;;;;;;;20.31;52.88;99016.81;7314119;39;21065;31
2023/07/20 03:04:49;;;;;;;3.02;2.16;;;;;;;20.26;53.72;99017.47;7268556;40;21176;31
2023/07/20 03:10:25;;;;;;;3.10;2.10;;;;;;;20.29;52.89;99017.00;7221767;40;20304;31
2023/07/20 03:15:58;;;;;;;3.20;2.00;;;;;;;20.27;53.40;99019.16;7276464;40;20453;31
2023/07/20 03:21:33;;;;;;;3.30;2.20;;;;;;;20.31;52.87;99019.53;7232721;40;20278;31
2023/07/20 03:32:13;;;;;;;6.80;2.30;;;;;;;20.33;53.55;99031.91;7251828;40;20273;31
2023/07/20 03:37:48;;;;;;;3.47;2.13;;;;;;;20.34;52.83;99030.84;7220746;40;20277;31
2023/07/20 03:43:20;;;;;;;4.50;2.20;;;;;;;20.36;52.36;99039.66;7198074;40;20264;31
2023/07/20 03:48:56;;;;;;;5.40;2.40;;;;;;;20.35;53.30;99042.66;7192035;40;20383;31
2023/07/20 03:54:16;;;;;;;5.03;2.40;;;;;;;20.36;52.66;99039.66;7144837;40;20298;31
2023/07/20 03:59:51;;;;;;;3.33;2.33;;;;;;;20.25;53.50;99038.53;7210872;40;20707;31
2023/07/20 04:10:31;;;;;;;4.67;2.17;;;;;;;20.18;53.42;99031.50;7276947;39;21187;31
2023/07/20 04:15:51;;;;;;;4.57;2.03;;;;;;;20.11;53.69;99038.94;7224373;40;20331;31
2023/07/20 04:21:23;;;;;;;3.93;2.37;;;;;;;20.17;54.59;99033.41;7214499;40;20353;31
2023/07/20 04:26:59;;;;;;;4.00;2.40;;;;;;;20.17;53.49;99043.50;7172286;40;20266;31
2023/07/20 04:37:45;;;;;;;3.90;2.20;;;;;;;20.13;54.88;99042.31;7198949;40;20286;31
2023/07/20 04:48:20;;;;;;;3.80;2.30;;;;;;;20.02;55.34;99043.91;7261399;40;20352;31
2023/07/20 04:53:55;;;;;;;4.73;2.60;;;;;;;20.12;53.64;99037.88;7214118;40;20288;31
2023/07/20 05:04:36;;;;;;;5.24;2.40;;;;;;;20.24;53.67;99036.84;7235036;40;20689;31
2023/07/20 05:15:00;;;;;;;3.40;2.40;;;;;;;20.27;54.80;99047.34;7204379;40;20366;31
2023/07/20 05:25:38;;;;;;;6.26;2.68;;;;;;;20.36;53.91;99038.84;7261682;40;20253;31
2023/07/20 05:30:59;;;;;;;4.22;2.70;;;;;;;20.46;54.61;99039.09;7220055;40;20256;31
2023/07/20 05:36:19;;;;;;;5.56;2.46;;;;;;;20.57;54.89;99043.78;7238499;40;20284;31
2023/07/20 05:46:59;;;;;;;4.00;2.53;;;;;;;20.68;54.18;99049.28;7236561;39;20282;31
2023/07/20 05:52:19;;;;;;;4.95;2.40;;;;;;;20.79;53.91;99047.63;7234415;40;20273;31
2023/07/20 05:57:54;;;;;;;3.87;2.30;;;;;;;20.87;55.41;99038.22;7267969;39;20289;31
2023/07/20 06:03:25;;;;;;;4.60;2.40;;;;;;;21.04;53.27;99047.41;7255790;40;20398;31
2023/07/20 06:08:46;;;;;;;5.82;2.35;;;;;;;21.16;54.02;99044.69;7193212;40;20359;31
2023/07/20 06:19:22;;;;;;;6.87;2.40;;;;;;;21.38;53.49;99054.81;7176591;40;20272;31
2023/07/20 06:24:38;;;;;;;4.40;2.37;;;;;;;21.39;53.73;99061.16;7200147;40;20332;31
2023/07/20 06:30:09;;;;;;;4.03;2.37;;;;;;;21.47;52.95;99052.53;7274548;40;20596;31
2023/07/20 06:35:40;;;;;;;4.55;2.35;;;;;;;21.70;53.56;99058.00;7233185;40;20277;31
2023/07/20 06:41:12;;;;;;;4.00;2.25;;;;;;;21.82;52.34;99053.31;7208125;40;20266;31
2023/07/20 06:46:33;;;;;;;3.95;2.20;;;;;;;21.96;52.67;99059.41;7176599;40;20263;31
2023/07/20 06:52:05;;;;;;;3.33;1.97;;;;;;;22.05;52.35;99055.19;7223117;40;20419;31
2023/07/20 06:57:23;;;;;;;7.68;2.30;;;;;;;22.22;51.08;99055.25;7174208;40;20348;31
2023/07/20 07:02:53;;;;;;;4.30;2.03;;;;;;;22.43;51.50;99051.78;7225106;40;20260;31
2023/07/20 07:08:24;;;;;;;3.22;2.03;;;;;;;22.74;50.71;99051.28;7254938;40;20359;31
2023/07/20 07:19:00;;;;;;;4.52;2.12;;;;;;;22.97;49.20;99061.28;7260529;40;20368;31
2023/07/20 07:29:37;;;;;;;5.60;2.15;;;;;;;23.22;49.29;99061.69;7271276;39;21339;31
2023/07/20 07:35:00;;;;;;;5.78;2.20;;;;;;;23.48;49.10;99065.69;7299442;39;20271;31
2023/07/20 07:40:18;;;;;;;3.85;2.30;;;;;;;23.55;47.45;99062.75;7314461;39;20274;31
2023/07/20 07:45:51;;;;;;;4.62;1.83;;;;;;;23.64;46.46;99072.25;7296095;39;20265;31
2023/07/20 07:51:11;;;;;;;3.10;1.98;;;;;;;23.70;47.37;99074.81;7256541;40;20269;31
2023/07/20 07:56:28;;;;;;;3.05;2.10;;;;;;;23.78;46.80;99079.06;7212517;40;20372;31
2023/07/20 08:07:05;;;;;;;4.55;2.10;;;;;;;24.11;46.46;99075.31;7236184;39;21176;31
2023/07/20 08:17:41;;;;;;;3.10;1.80;;;;;;;24.63;45.34;99067.38;7257772;40;21119;31
2023/07/20 08:28:22;;;;;;;3.58;2.30;;;;;;;24.84;44.80;99073.91;7306132;39;20327;31
2023/07/20 08:38:43;;;;;;;2.80;2.00;;;;;;;24.83;44.51;99064.84;7283015;39;21196;31
2023/07/20 08:49:20;;;;;;;3.20;1.80;;;;;;;25.24;42.74;99070.69;7262922;39;21084;31
2023/07/20 08:54:55;;;;;;;2.50;1.70;;;;;;;25.28;42.79;99069.06;7274644;40;20250;31
2023/07/20 09:00:27;;;;;;;5.00;1.97;;;;;;;24.80;42.18;99056.22;7271704;39;20299;31
2023/07/20 09:11:04;;;;;;;2.50;1.80;;;;;;;25.21;41.01;99051.91;7239258;40;21210;31
2023/07/20 09:16:37;;;;;;;3.97;2.13;;;;;;;25.46;41.59;99063.13;6984968;40;20415;31
2023/07/20 09:21:57;;;;;;;2.87;1.93;;;;;;;25.63;41.10;99058.28;7205997;40;20274;31
2023/07/20 09:27:30;;;;;;;3.60;1.54;;;;;;;25.75;40.16;99056.16;7178650;40;20270;31
2023/07/20 09:33:02;;;;;;;3.67;1.87;;;;;;;25.64;39.66;99042.53;7158009;40;21187;31
2023/07/20 09:38:37;;;;;;;2.85;1.70;;;;;;;25.66;39.52;99051.41;7184937;40;20362;31
2023/07/20 09:44:23;;;;;;;3.33;1.92;;;;;;;25.29;41.36;99059.69;7210113;40;20288;31
2023/07/20 09:55:14;;;;;;;2.20;1.60;;;;;;;25.53;38.52;99044.41;7208009;40;20466;31
2023/07/20 10:05:51;;;;;;;2.74;1.78;;;;;;;25.86;38.31;99033.00;7230810;40;21159;31
2023/07/20 10:11:23;;;;;;;3.13;1.80;;;;;;;26.19;38.12;99020.69;7255694;40;20261;31
2023/07/20 10:16:58;;;;;;;2.65;1.70;;;;;;;25.81;38.77;99016.41;7196567;40;20390;31
2023/07/20 10:22:32;;;;;;;2.65;1.60;;;;;;;25.40;40.45;99020.03;7178268;40;20287;31
2023/07/20 10:28:07;;;;;;;2.30;1.75;;;;;;;25.58;40.38;99016.03;7159094;40;20263;31
2023/07/20 10:33:39;;;;;;;3.28;1.68;;;;;;;26.32;39.78;99011.91;7152223;40;20289;31
2023/07/20 10:44:17;;;;;;;3.04;2.00;;;;;;;26.32;36.96;98998.09;7160964;40;21127;31
2023/07/20 10:55:03;;;;;;;2.10;1.50;;;;;;;26.85;36.69;98990.41;7216145;40;21421;31
2023/07/20 11:00:37;;;;;;;1.87;1.67;;;;;;;27.20;34.44;98982.06;7255753;40;20263;31
2023/07/20 11:06:09;;;;;;;3.53;1.63;;;;;;;27.25;34.20;98987.56;7212957;40;20461;31
2023/07/20 11:11:38;;;;;;;2.20;1.50;;;;;;;27.39;35.18;98989.75;7211701;40;20386;31
2023/07/20 11:16:58;;;;;;;2.40;1.60;;;;;;;26.86;36.19;98981.81;7206858;40;20267;31
2023/07/20 11:22:32;;;;;;;2.66;1.70;;;;;;;27.25;35.23;98972.91;7213588;40;20257;31
2023/07/20 11:27:49;;;;;;;3.00;1.70;;;;;;;27.27;34.33;98971.53;7193470;40;20269;31
2023/07/20 11:33:24;;;;;;;2.43;1.40;;;;;;;27.04;34.79;98965.75;7235104;40;20470;31
2023/07/20 11:38:58;;;;;;;1.80;1.40;;;;;;;27.16;34.00;98966.28;7232999;40;20272;31
2023/07/20 11:44:33;;;;;;;3.37;1.27;;;;;;;27.29;34.17;98958.22;7231812;40;20250;31
2023/07/20 11:49:54;;;;;;;4.50;1.55;;;;;;;27.51;33.69;98948.78;7253863;40;20271;31
2023/07/20 11:55:29;;;;;;;2.75;1.65;;;;;;;27.54;33.87;98946.28;7235331;40;20495;31
2023/07/20 12:01:02;;;;;;;2.55;1.50;;;;;;;27.34;33.75;98938.00;7185478;40;20327;31
2023/07/20 12:06:38;;;;;;;1.50;1.20;;;;;;;27.30;34.18;98926.66;7192379;40;20246;31
2023/07/20 12:12:12;;;;;;;2.10;1.32;;;;;;;27.58;33.07;98932.69;7130274;40;20264;31
2023/07/20 12:22:31;;;;;;;3.67;1.52;;;;;;;28.19;32.47;98914.62;7210900;40;21041;31
2023/07/20 12:28:07;;;;;;;2.15;1.50;;;;;;;27.93;31.22;98926.97;7180767;40;20265;31
2023/07/20 12:33:39;;;;;;;2.30;1.50;;;;;;;27.86;30.25;98918.16;7197039;40;20452;31
2023/07/20 12:38:58;;;;;;;2.60;1.50;;;;;;;28.12;30.33;98908.59;7175928;40;20269;31
2023/07/20 12:44:32;;;;;;;2.65;1.40;;;;;;;28.26;29.85;98896.84;7175498;40;20277;31
2023/07/20 12:55:17;;;;;;;2.10;1.70;;;;;;;28.74;30.32;98895.06;7326507;40;20225;31
2023/07/20 13:00:49;;;;;;;2.78;1.48;;;;;;;28.86;29.87;98890.78;7234444;40;20316;31
2023/07/20 13:06:21;;;;;;;1.95;1.55;;;;;;;28.41;31.31;98886.44;7250144;39;20410;31
2023/07/20 13:11:53;;;;;;;2.30;1.50;;;;;;;28.52;29.73;98879.66;7214169;40;20257;31
2023/07/20 13:17:26;;;;;;;2.64;1.52;;;;;;;28.84;30.10;98878.28;7187936;40;20262;31
2023/07/20 13:22:43;;;;;;;2.35;1.40;;;;;;;29.24;30.48;98866.72;7165236;40;20341;31
2023/07/20 13:28:03;;;;;;;1.70;1.60;;;;;;;29.40;29.13;98870.19;7170842;40;20269;31
2023/07/20 13:33:35;;;;;;;3.15;1.80;;;;;;;29.34;29.11;98866.66;7178854;40;20439;31
2023/07/20 13:38:55;;;;;;;2.08;1.60;;;;;;;28.90;30.27;98860.47;7211820;40;20261;31
2023/07/20 13:44:12;;;;;;;7.22;1.77;;;;;;;28.47;30.86;98865.03;7257208;40;20287;31
2023/07/20 13:49:47;;;;;;;2.83;1.60;;;;;;;28.08;30.05;98863.09;7242224;40;20249;31
2023/07/20 13:55:08;;;;;;;2.00;1.50;;;;;;;27.91;30.80;98859.91;7261742;40;20261;31
2023/07/20 14:00:32;;;;;;;2.15;1.70;;;;;;;28.02;31.37;98853.19;7256935;40;20469;31
2023/07/20 14:06:01;;;;;;;2.70;1.73;;;;;;;27.93;31.82;98854.06;7275094;40;20423;31
2023/07/20 14:11:33;;;;;;;2.40;1.70;;;;;;;28.12;31.12;98844.81;7292848;40;20264;31
2023/07/20 14:16:51;;;;;;;2.20;1.50;;;;;;;28.36;31.07;98839.34;7195317;40;20515;31
2023/07/20 14:22:23;;;;;;;2.33;1.42;;;;;;;28.28;30.59;98830.81;7230050;40;20264;31
2023/07/20 14:27:41;;;;;;;2.03;1.80;;;;;;;27.96;29.61;98828.56;7190578;40;20250;31
2023/07/20 14:33:12;;;;;;;2.92;1.48;;;;;;;28.11;29.74;98826.53;7165422;40;20287;31
2023/07/20 14:38:46;;;;;;;2.30;1.45;;;;;;;27.92;30.18;98821.94;7162635;40;20273;31
2023/07/20 14:44:06;;;;;;;2.65;1.95;;;;;;;27.58;30.29;98811.66;7189352;40;20333;31
2023/07/20 14:49:37;;;;;;;3.00;1.70;;;;;;;27.59;31.30;98812.47;7265594;40;20469;31
2023/07/20 14:55:10;;;;;;;2.03;1.70;;;;;;;27.75;31.12;98812.09;7283497;39;20248;31
2023/07/20 15:00:29;;;;;;;3.62;1.80;;;;;;;27.89;32.37;98808.66;7213136;40;20371;31
2023/07/20 15:05:45;;;;;;;1.90;1.50;;;;;;;27.86;32.03;98801.78;7230573;40;20277;31
2023/07/20 15:11:18;;;;;;;2.92;1.85;;;;;;;27.78;32.15;98805.13;7220397;40;20273;31
2023/07/20 15:21:54;;;;;;;2.70;1.50;;;;;;;27.89;30.76;98794.81;7313326;39;21345;31
2023/07/20 15:27:27;;;;;;;2.35;1.77;;;;;;;28.00;31.00;98776.97;7280294;39;20250;31
2023/07/20 15:33:02;;;;;;;3.20;1.50;;;;;;;28.05;30.15;98777.75;7246739;40;20354;31
2023/07/20 15:38:22;;;;;;;3.23;1.70;;;;;;;27.99;30.33;98761.47;7254159;40;20257;31
2023/07/20 15:43:59;;;;;;;3.05;1.75;;;;;;;27.96;31.02;98771.19;7208507;40;20372;31
2023/07/20 15:49:31;;;;;;;2.53;1.70;;;;;;;28.01;31.00;98765.59;7156349;40;20537;31
2023/07/20 15:54:48;;;;;;;3.00;1.70;;;;;;;28.13;31.16;98756.94;7222017;40;20276;31
2023/07/20 16:00:25;;;;;;;2.33;1.53;;;;;;;28.08;31.04;98762.50;7236790;40;20257;31
2023/07/20 16:05:57;;;;;;;2.73;1.50;;;;;;;28.22;30.92;98753.25;6986648;40;20293;31
2023/07/20 16:11:14;;;;;;;1.98;1.60;;;;;;;28.31;30.95;98745.09;7206305;40;20420;31
2023/07/20 16:16:47;;;;;;;2.53;1.73;;;;;;;28.36;31.06;98745.06;7163885;40;20506;31
2023/07/20 16:22:19;;;;;;;2.60;1.70;;;;;;;28.21;30.35;98742.47;7133917;40;20246;31
2023/07/20 16:27:48;;;;;;;2.00;1.55;;;;;;;28.17;31.42;98735.84;7154307;40;20265;31
2023/07/20 16:33:36;;;;;;;1.76;1.52;;;;;;;27.98;31.75;98740.44;7135124;40;20263;31
2023/07/20 16:39:09;;;;;;;2.95;1.40;;;;;;;27.61;31.85;98736.28;7162478;40;20274;31
2023/07/20 16:44:25;;;;;;;3.60;1.67;;;;;;;27.52;32.21;98726.94;7115705;40;20358;31
2023/07/20 16:49:56;;;;;;;3.50;1.60;;;;;;;27.64;31.31;98727.44;7110262;40;20255;31
2023/07/20 16:55:31;;;;;;;5.13;1.63;;;;;;;27.77;32.14;98712.09;7086238;41;20275;31
2023/07/20 17:01:04;;;;;;;2.58;1.60;;;;;;;27.76;31.56;98719.56;7123304;40;20259;31
2023/07/20 17:06:37;;;;;;;2.10;1.60;;;;;;;27.75;31.82;98728.97;7174189;40;20277;31
2023/07/20 17:12:08;;;;;;;2.70;1.70;;;;;;;27.55;32.34;98717.25;7173422;40;20367;31
2023/07/20 17:17:24;;;;;;;1.90;1.50;;;;;;;27.55;32.44;98718.06;7146228;40;20262;31
2023/07/20 17:22:55;;;;;;;2.57;1.73;;;;;;;27.43;32.54;98716.72;7181282;40;22157;31
2023/07/20 17:33:31;;;;;;;3.62;1.55;;;;;;;27.16;33.28;98725.50;7220506;40;20281;31
2023/07/20 17:39:05;;;;;;;1.87;1.67;;;;;;;27.03;33.84;98723.38;7262522;39;20316;31
2023/07/20 17:44:25;;;;;;;2.42;1.70;;;;;;;27.01;33.54;98722.81;7210544;40;20250;31
2023/07/20 17:49:45;;;;;;;2.47;1.60;;;;;;;26.92;33.66;98732.81;7236134;40;20277;31
2023/07/20 17:55:19;;;;;;;2.67;1.60;;;;;;;26.88;34.08;98727.87;7214128;40;20285;31
2023/07/20 18:00:52;;;;;;;1.67;1.50;;;;;;;26.77;34.17;98720.69;7162267;40;20337;31
2023/07/20 18:06:12;;;;;;;2.55;1.50;;;;;;;26.66;34.85;98727.38;7213817;40;20273;31
2023/07/20 18:11:48;;;;;;;1.95;1.65;;;;;;;26.55;34.65;98719.41;7255543;40;20257;31
2023/07/20 18:17:20;;;;;;;2.70;1.52;;;;;;;26.46;34.44;98722.72;7232341;40;20419;31
2023/07/20 18:22:55;;;;;;;4.40;1.80;;;;;;;26.44;35.34;98724.97;7243867;40;20269;31
2023/07/20 18:28:28;;;;;;;2.83;1.60;;;;;;;26.32;34.62;98720.87;7213723;40;20270;31
2023/07/20 18:33:45;;;;;;;3.10;1.50;;;;;;;26.33;35.13;98719.72;7213460;40;20339;31
2023/07/20 18:44:23;;;;;;;4.70;3.60;;;;;;;26.23;35.47;98709.56;7271155;40;21366;31
2023/07/20 18:49:56;;;;;;;3.80;2.30;;;;;;;26.19;35.64;98710.38;7181988;40;20243;31
2023/07/20 18:55:28;;;;;;;3.10;2.07;;;;;;;26.05;36.64;98712.03;7283591;40;20361;31
2023/07/20 19:01:02;;;;;;;2.37;1.85;;;;;;;25.90;37.56;98707.34;7233719;40;20356;31
2023/07/20 19:11:27;;;;;;;3.93;1.73;;;;;;;25.72;37.89;98717.03;7252348;40;20281;31
2023/07/20 19:22:04;;;;;;;2.40;1.65;;;;;;;25.40;38.63;98714.53;7256017;40;21007;31
2023/07/20 19:32:26;;;;;;;2.62;1.80;;;;;;;25.24;39.53;98729.38;7297979;39;22077;31
2023/07/20 19:43:04;;;;;;;2.42;1.70;;;;;;;24.81;40.33;98727.84;7272652;39;21199;31
2023/07/20 19:53:29;;;;;;;3.93;1.73;;;;;;;24.70;40.49;98728.94;7233909;40;21080;31
2023/07/20 20:04:06;;;;;;;2.87;1.80;;;;;;;24.48;42.55;98729.09;7278584;40;21159;31
2023/07/20 20:14:45;;;;;;;5.57;1.97;;;;;;;24.34;41.93;98733.44;7296011;39;20276;31
2023/07/20 20:25:23;;;;;;;3.70;1.80;;;;;;;24.04;42.47;98739.56;7308041;39;21261;31
2023/07/20 20:35:59;;;;;;;3.07;1.60;;;;;;;23.89;43.50;98733.94;7301154;39;21485;31
2023/07/20 20:41:43;;;;;;;3.40;1.80;;;;;;;23.82;43.54;98736.09;7255329;40;20250;31
2023/07/20 20:47:00;;;;;;;2.70;2.00;;;;;;;23.78;42.83;98737.72;7272967;39;20249;31
2023/07/20 20:52:17;;;;;;;3.67;1.70;;;;;;;23.69;42.91;98728.28;7278201;40;20257;31
2023/07/20 20:57:54;;;;;;;2.33;2.03;;;;;;;23.57;44.39;98733.09;7257749;40;20257;31
2023/07/20 21:03:14;;;;;;;3.03;2.08;;;;;;;23.51;44.01;98731.41;7240562;40;20248;31
2023/07/20 21:08:34;;;;;;;2.08;1.67;;;;;;;23.45;44.18;98724.19;7294411;40;20276;31
2023/07/20 21:14:09;;;;;;;3.80;2.03;;;;;;;23.22;44.65;98714.31;7273057;40;20311;31
2023/07/20 21:19:45;;;;;;;3.30;2.05;;;;;;;23.09;45.61;98712.81;7217327;40;20262;31
2023/07/20 21:25:17;;;;;;;5.95;1.80;;;;;;;22.96;45.33;98717.88;7224879;40;20242;31
2023/07/20 21:30:54;;;;;;;4.90;1.60;;;;;;;22.86;45.96;98711.19;7194818;40;20426;31
2023/07/20 21:36:29;;;;;;;2.65;1.85;;;;;;;22.81;45.97;98721.31;7210515;40;20268;31
2023/07/20 21:41:49;;;;;;;3.58;2.00;;;;;;;22.66;46.29;98721.09;7178654;40;20275;31
2023/07/20 21:47:23;;;;;;;3.80;1.83;;;;;;;22.40;46.26;98718.03;7137017;41;20304;31
2023/07/20 21:52:59;;;;;;;2.84;1.92;;;;;;;22.31;46.87;98722.31;7141836;40;20393;31
2023/07/20 21:58:31;;;;;;;2.20;1.85;;;;;;;22.34;47.21;98713.53;7201103;40;20292;31
2023/07/20 22:09:08;;;;;;;2.15;1.85;;;;;;;22.14;47.42;98732.50;7229137;40;21147;31
2023/07/20 22:14:44;;;;;;;1.92;1.73;;;;;;;21.82;49.15;98728.66;7270064;40;20363;31
2023/07/20 22:20:16;;;;;;;2.70;1.70;;;;;;;21.50;48.51;98721.00;7249413;40;20249;31
2023/07/20 22:25:51;;;;;;;2.87;1.80;;;;;;;21.35;50.41;98720.78;7177140;40;20313;31
2023/07/20 22:31:21;;;;;;;5.90;1.90;;;;;;;21.10;49.54;98731.25;7124263;40;20266;31
2023/07/20 22:36:38;;;;;;;5.05;2.20;;;;;;;20.99;50.54;98734.88;7153126;40;20267;31
2023/07/20 22:42:11;;;;;;;4.45;1.90;;;;;;;20.99;48.62;98729.38;7163185;40;20677;31
2023/07/20 22:47:32;;;;;;;3.47;1.90;;;;;;;21.13;48.82;98728.03;7218358;40;20257;31
2023/07/20 22:52:51;;;;;;;2.80;1.80;;;;;;;21.25;49.45;98731.56;7255140;40;20300;31
2023/07/20 22:58:27;;;;;;;2.90;2.00;;;;;;;20.95;49.92;98726.31;7217143;40;20363;31
2023/07/20 23:03:44;;;;;;;4.15;2.10;;;;;;;20.90;49.30;98712.50;6981783;40;21348;31
2023/07/20 23:09:00;;;;;;;2.83;1.85;;;;;;;20.95;49.64;98718.09;7140032;40;20263;31
2023/07/20 23:14:32;;;;;;;3.12;1.85;;;;;;;21.04;49.80;98713.03;7143098;40;20262;31
2023/07/20 23:20:10;;;;;;;3.15;1.90;;;;;;;20.83;49.79;98713.75;7204412;40;20270;31
2023/07/20 23:25:40;;;;;;;2.58;1.77;;;;;;;20.58;50.93;98705.81;7202239;40;20269;31
2023/07/20 23:31:13;;;;;;;3.00;1.90;;;;;;;20.60;51.83;98698.22;7175579;40;20266;31
2023/07/20 23:36:30;;;;;;;2.37;1.80;;;;;;;20.43;51.50;98697.31;7200097;40;20348;31
2023/07/20 23:41:47;;;;;;;2.45;1.77;;;;;;;20.31;52.64;98693.78;7224074;40;20265;31
2023/07/20 23:47:18;;;;;;;2.10;1.75;;;;;;;20.36;51.45;98691.97;7289473;39;20248;31
2023/07/20 23:52:50;;;;;;;2.10;1.90;;;;;;;20.22;52.28;98696.88;7233269;40;21189;31
2023/07/20 23:58:07;;;;;;;2.00;1.80;;;;;;;20.24;52.44;98686.50;7164690;40;20251;31
